Angus, Minnesota
Current Conditions -  °F | °C
As of 12:14 AM on Tuesday 21 Oct 2014 (Local Time) from KCKN Reporting Station
Clear Clear  
Wind Chill: 37°   Ceiling: Unl
Heat Index: 43°   Visibility: 10mi
Dew Point: 37°   Wind: 10mph
Humidity: 81%   Direction: 130°SE
Pressure: 30.07"   Gusts: NA
Location:  48.08°N, 96.7°W
Report Text: KCKN 210514Z AUTO 13009KT 10SM CLR 06/03 A3007 RMK AO2
Loading
Personal Weather Stations






























Interactive Weather Map
Tropical Storm Tracking
New forecast layout! Learn more

10-Day Weather Forecast

Advertisements
Track Severe Weather on mobile